Time;durP1;ratioP1;P1;durP2;ratioP2;P2;SDS_P1;SDS_P2;PMS_P1;PMS_P2;Temp;Humidity;BMP_temperature;BMP_pressure;BME280_temperature;BME280_humidity;BME280_pressure;Samples;Min_cycle;Max_cycle;Signal;HPM_P1;HPM_P2
2022/09/23 00:01:08;;;;;;;;;;;;;;;9.19;87.25;99620.09;1746473;82;20116;-48
2022/09/23 00:03:36;;;;;;;;;;;;;;;9.17;86.99;99614.06;1746439;82;20152;-49
2022/09/23 00:06:04;;;;;;;;;;;;;;;9.16;86.56;99614.97;1746433;82;20112;-48
2022/09/23 00:08:30;;;;;;;;;;;;;;;9.08;87.73;99616.62;1745905;82;20139;-48
2022/09/23 00:10:56;;;;;;;;;;;;;;;9.08;87.54;99617.95;1746433;82;20131;-47
2022/09/23 00:13:23;;;;;;;;;;;;;;;9.07;87.41;99617.54;1746512;82;20107;-51
2022/09/23 00:15:49;;;;;;;;;;;;;;;9.05;87.52;99620.69;1746382;82;20120;-49
2022/09/23 00:18:16;;;;;;;;;;;;;;;9.04;87.66;99616.38;1746378;82;20111;-46
2022/09/23 00:20:43;;;;;;;;;;;;;;;9.00;87.84;99622.66;1746391;82;20115;-48
2022/09/23 00:23:08;;;;;;;;;;;;;;;8.97;87.79;99618.41;1746428;82;20420;-46
2022/09/23 00:25:34;;;;;;;;;;;;;;;8.96;87.89;99626.34;1746408;82;20103;-47
2022/09/23 00:28:00;;;;;;;;;;;;;;;8.93;88.03;99623.84;1746527;82;20433;-47
2022/09/23 00:30:26;;;;;;;;;;;;;;;8.94;87.67;99617.69;1746356;82;20138;-46
2022/09/23 00:32:51;;;;;;;;;;;;;;;8.93;88.04;99612.91;1746399;82;20111;-48
2022/09/23 00:35:17;;;;;;;;;;;;;;;8.94;87.22;99611.13;1746426;82;20139;-51
2022/09/23 00:37:43;;;;;;;;;;;;;;;8.88;88.55;99614.00;1746460;82;20464;-46
2022/09/23 00:40:11;;;;;;;;;;;;;;;8.88;88.32;99614.88;1746390;82;20115;-47
2022/09/23 00:42:36;;;;;;;;;;;;;;;8.88;88.36;99609.63;1746534;82;20112;-48
2022/09/23 00:45:03;;;;;;;;;;;;;;;8.83;86.98;99607.19;1746337;82;20124;-48
2022/09/23 00:47:34;;;;;;;;;;;;;;;8.79;86.51;99611.34;1744882;81;20116;-47
2022/09/23 00:50:07;;;;;;;;;;;;;;;8.78;87.38;99607.00;1741931;82;20100;-45
2022/09/23 00:52:34;;;;;;;;;;;;;;;8.74;87.70;99601.03;1741958;82;20108;-46
2022/09/23 00:55:02;;;;;;;;;;;;;;;8.71;87.39;99606.40;1741928;82;20108;-47
2022/09/23 00:57:29;;;;;;;;;;;;;;;8.66;88.72;99607.08;1714844;82;20156;-47
2022/09/23 00:59:55;;;;;;;;;;;;;;;8.60;89.40;99604.27;1741897;82;20410;-47
2022/09/23 01:02:20;;;;;;;;;;;;;;;8.56;89.63;99600.04;1741956;82;20189;-48
2022/09/23 01:04:49;;;;;;;;;;;;;;;8.59;89.73;99603.86;1741888;82;20108;-46
2022/09/23 01:07:14;;;;;;;;;;;;;;;8.61;89.54;99606.41;1741894;82;20112;-45
2022/09/23 01:09:40;;;;;;;;;;;;;;;8.57;89.42;99598.30;1741941;82;20100;-48
2022/09/23 01:12:16;;;;;;;;;;;;;;;8.50;90.38;99606.02;1741886;82;20157;-49
2022/09/23 01:15:00;;;;;;;;;;;;;;;8.40;90.92;99598.51;1741936;82;20104;-48
2022/09/23 01:17:49;;;;;;;;;;;;;;;8.44;90.03;99600.11;1741527;81;20408;-49
2022/09/23 01:20:52;;;;;;;;;;;;;;;8.46;89.29;99596.13;1741994;82;20433;-47
2022/09/23 01:23:21;;;;;;;;;;;;;;;8.47;88.52;99600.42;1741987;82;20119;-48
2022/09/23 01:25:56;;;;;;;;;;;;;;;8.45;89.47;99599.17;1741902;82;20408;-50
2022/09/23 01:28:47;;;;;;;;;;;;;;;8.48;88.94;99593.41;1741018;82;20108;-49
2022/09/23 01:31:32;;;;;;;;;;;;;;;8.41;90.11;99594.95;1742011;82;20119;-48
2022/09/23 01:34:10;;;;;;;;;;;;;;;8.40;90.61;99597.63;1741747;82;20116;-49
2022/09/23 01:36:48;;;;;;;;;;;;;;;8.39;90.45;99596.79;1740535;82;20111;-44
2022/09/23 01:39:32;;;;;;;;;;;;;;;8.40;90.42;99598.95;1735773;82;20104;-49
2022/09/23 01:42:10;;;;;;;;;;;;;;;8.36;90.26;99604.77;1742604;82;20115;-48
2022/09/23 01:44:56;;;;;;;;;;;;;;;8.34;90.56;99603.14;1743614;82;20111;-47
2022/09/23 01:47:26;;;;;;;;;;;;;;;8.33;90.58;99595.75;1742937;81;20122;-46
2022/09/23 01:49:57;;;;;;;;;;;;;;;8.33;91.09;99595.75;1739150;82;20114;-47
2022/09/23 01:52:32;;;;;;;;;;;;;;;8.30;90.71;99589.31;1740202;82;20126;-46
2022/09/23 01:55:10;;;;;;;;;;;;;;;8.24;91.06;99590.42;1739421;82;20110;-46
2022/09/23 01:58:01;;;;;;;;;;;;;;;8.21;91.25;99581.83;1739639;82;20498;-47
2022/09/23 02:00:29;;;;;;;;;;;;;;;8.21;91.43;99584.45;1687999;85;20119;-51
2022/09/23 02:03:00;;;;;;;;;;;;;;;8.20;90.97;99583.58;1664969;85;20445;-46
2022/09/23 02:05:34;;;;;;;;;;;;;;;8.21;91.12;99590.53;1687293;85;20115;-47
2022/09/23 02:08:04;;;;;;;;;;;;;;;8.18;90.64;99585.88;1687957;85;20408;-48
2022/09/23 02:10:32;;;;;;;;;;;;;;;8.17;90.77;99580.27;1687960;85;20472;-45
2022/09/23 02:13:04;;;;;;;;;;;;;;;8.15;90.62;99580.31;1688063;85;20108;-46
2022/09/23 02:15:31;;;;;;;;;;;;;;;8.15;90.61;99581.63;1687885;85;20449;-47
2022/09/23 02:18:09;;;;;;;;;;;;;;;8.17;90.81;99587.66;1688144;85;20116;-49
2022/09/23 02:20:38;;;;;;;;;;;;;;;8.13;90.33;99584.77;1688107;85;20116;-47
2022/09/23 02:23:11;;;;;;;;;;;;;;;8.14;90.05;99587.77;1688203;85;20136;-46
2022/09/23 02:25:56;;;;;;;;;;;;;;;8.13;89.78;99583.89;1687889;85;20393;-46
2022/09/23 02:28:29;;;;;;;;;;;;;;;8.12;89.74;99582.20;1687998;85;20169;-46
2022/09/23 02:30:59;;;;;;;;;;;;;;;8.14;89.45;99583.00;1687633;85;20120;-44
2022/09/23 02:33:31;;;;;;;;;;;;;;;8.18;89.02;99584.09;1687030;85;20457;-46
2022/09/23 02:36:09;;;;;;;;;;;;;;;8.19;88.95;99587.13;1709308;82;20145;-45
2022/09/23 02:38:41;;;;;;;;;;;;;;;8.11;88.86;99579.18;1739014;82;20106;-44
2022/09/23 02:41:27;;;;;;;;;;;;;;;8.02;89.24;99579.97;1737625;80;20143;-42
2022/09/23 02:44:13;;;;;;;;;;;;;;;8.02;89.44;99579.09;1787155;80;20100;-45
2022/09/23 02:46:42;;;;;;;;;;;;;;;7.95;89.95;99574.58;1784117;80;20121;-47
2022/09/23 02:49:24;;;;;;;;;;;;;;;7.91;90.10;99580.82;1783825;80;20369;-47
2022/09/23 02:51:50;;;;;;;;;;;;;;;7.87;89.88;99584.02;1784019;80;20108;-47
2022/09/23 02:54:18;;;;;;;;;;;;;;;7.86;89.65;99586.27;1784018;80;20136;-50
2022/09/23 02:56:44;;;;;;;;;;;;;;;7.88;89.36;99584.89;1783929;80;20382;-45
2022/09/23 02:59:10;;;;;;;;;;;;;;;7.84;89.21;99588.09;1784000;80;20168;-47
2022/09/23 03:01:51;;;;;;;;;;;;;;;7.82;89.07;99587.73;1783957;80;20417;-47
2022/09/23 03:04:38;;;;;;;;;;;;;;;7.77;88.50;99584.01;1784145;80;20112;-45
2022/09/23 03:07:16;;;;;;;;;;;;;;;7.71;88.77;99583.38;1784164;80;20113;-47
2022/09/23 03:10:09;;;;;;;;;;;;;;;7.68;89.01;99587.83;1783981;80;20107;-49
2022/09/23 03:12:47;;;;;;;;;;;;;;;7.65;88.87;99594.48;1782894;80;20097;-47
2022/09/23 03:15:26;;;;;;;;;;;;;;;7.63;89.05;99582.37;1783963;80;20109;-45
2022/09/23 03:18:09;;;;;;;;;;;;;;;7.61;88.96;99587.66;1783046;80;20480;-46
2022/09/23 03:20:44;;;;;;;;;;;;;;;7.59;89.00;99589.49;1783937;80;20516;-46
2022/09/23 03:23:13;;;;;;;;;;;;;;;7.62;88.85;99589.81;1783993;80;20112;-47
2022/09/23 03:25:39;;;;;;;;;;;;;;;;;;1784044;80;20096;-50
2022/09/23 03:28:07;;;;;;;;;;;;;;;7.62;88.95;99585.89;1783910;80;20156;-47
2022/09/23 03:30:34;;;;;;;;;;;;;;;7.50;90.42;99589.84;1784039;80;20107;-47
2022/09/23 03:33:01;;;;;;;;;;;;;;;7.45;90.94;99592.62;1764366;80;20104;-48
2022/09/23 03:35:28;;;;;;;;;;;;;;;7.47;91.53;99586.03;1783948;80;20096;-49
2022/09/23 03:37:57;;;;;;;;;;;;;;;7.46;91.90;99584.34;1783951;80;20084;-46
2022/09/23 03:40:29;;;;;;;;;;;;;;;7.45;91.72;99588.70;1782941;80;20108;-48
2022/09/23 03:42:56;;;;;;;;;;;;;;;7.45;90.41;99595.23;1783472;80;20104;-48
2022/09/23 03:45:26;;;;;;;;;;;;;;;7.39;91.09;99589.41;1784024;79;20132;-47
2022/09/23 03:47:51;;;;;;;;;;;;;;;7.32;92.16;99580.08;1783982;80;20445;-47
2022/09/23 03:50:17;;;;;;;;;;;;;;;7.36;92.66;99582.97;1784035;80;20105;-47
2022/09/23 03:52:43;;;;;;;;;;;;;;;7.33;92.76;99577.84;1783914;80;20409;-49
2022/09/23 03:55:10;;;;;;;;;;;;;;;7.29;93.34;99583.20;1783879;80;20092;-45
2022/09/23 03:57:36;;;;;;;;;;;;;;;7.27;93.46;99581.08;1783937;80;20112;-49
2022/09/23 04:00:03;;;;;;;;;;;;;;;7.28;93.11;99581.48;1783914;80;20128;-48
2022/09/23 04:02:30;;;;;;;;;;;;;;;7.24;93.63;99579.91;1783925;80;20096;-47
2022/09/23 04:04:56;;;;;;;;;;;;;;;7.23;93.73;99579.49;1783938;80;20128;-49
2022/09/23 04:07:22;;;;;;;;;;;;;;;7.21;93.90;99574.77;1783927;80;20179;-47
2022/09/23 04:09:47;;;;;;;;;;;;;;;7.26;93.44;99576.77;1783810;80;20437;-46
2022/09/23 04:12:14;;;;;;;;;;;;;;;7.28;92.93;99579.34;1783920;80;20189;-48
2022/09/23 04:14:40;;;;;;;;;;;;;;;7.27;91.29;99579.77;1784025;80;20437;-46
2022/09/23 04:17:06;;;;;;;;;;;;;;;7.17;91.76;99577.11;1784135;80;20143;-50
2022/09/23 04:19:32;;;;;;;;;;;;;;;7.15;91.89;99581.55;1783897;80;20104;-49
2022/09/23 04:21:58;;;;;;;;;;;;;;;7.12;93.12;99580.34;1783927;80;20161;-48
2022/09/23 04:24:24;;;;;;;;;;;;;;;7.15;93.25;99582.86;1783973;80;20096;-46
2022/09/23 04:26:52;;;;;;;;;;;;;;;7.16;92.22;99581.94;1784126;80;20128;-48
2022/09/23 04:29:18;;;;;;;;;;;;;;;7.08;93.11;99585.30;1783308;80;20135;-44
2022/09/23 04:31:44;;;;;;;;;;;;;;;6.96;93.23;99584.42;1783888;80;20112;-46
2022/09/23 04:34:09;;;;;;;;;;;;;;;6.86;93.38;99579.53;1783992;80;20128;-45
2022/09/23 04:36:35;;;;;;;;;;;;;;;6.83;93.84;99584.85;1783995;80;20176;-45
2022/09/23 04:39:01;;;;;;;;;;;;;;;6.77;93.87;99585.08;1783800;80;20096;-45
2022/09/23 04:41:26;;;;;;;;;;;;;;;6.81;93.92;99584.52;1783885;80;20176;-45
2022/09/23 04:43:52;;;;;;;;;;;;;;;6.83;93.80;99584.85;1783874;80;20401;-48
2022/09/23 04:46:18;;;;;;;;;;;;;;;6.89;93.02;99583.34;1783901;80;20153;-47
2022/09/23 04:48:43;;;;;;;;;;;;;;;6.87;93.33;99578.60;1783933;80;20101;-47
2022/09/23 04:51:12;;;;;;;;;;;;;;;6.79;92.99;99579.34;1783941;80;20156;-48
2022/09/23 04:53:39;;;;;;;;;;;;;;;6.77;93.74;99580.28;1783836;80;20104;-49
2022/09/23 04:56:08;;;;;;;;;;;;;;;6.79;93.32;99574.11;1783957;80;20097;-47
2022/09/23 04:58:35;;;;;;;;;;;;;;;6.77;93.54;99573.75;1783582;80;20113;-47
2022/09/23 05:01:15;;;;;;;;;;;;;;;6.70;94.03;99572.67;1783889;80;20128;-47
2022/09/23 05:03:42;;;;;;;;;;;;;;;6.76;93.98;99571.59;1783865;80;20396;-48
2022/09/23 05:06:08;;;;;;;;;;;;;;;6.75;93.91;99579.05;1783748;80;20112;-47
2022/09/23 05:08:34;;;;;;;;;;;;;;;6.79;94.05;99578.50;1782880;79;20511;-48
2022/09/23 05:11:03;;;;;;;;;;;;;;;6.84;93.72;99576.12;1783755;80;20128;-48
2022/09/23 05:13:30;;;;;;;;;;;;;;;6.91;93.65;99574.99;1784086;80;20408;-46
2022/09/23 05:16:04;;;;;;;;;;;;;;;6.97;93.77;99569.99;1783925;80;20096;-48
2022/09/23 05:18:31;;;;;;;;;;;;;;;7.00;93.51;99575.55;1783350;80;20136;-48
2022/09/23 05:20:57;;;;;;;;;;;;;;;7.08;93.70;99573.53;1784043;80;20104;-48
2022/09/23 05:23:23;;;;;;;;;;;;;;;7.15;93.52;99575.45;1783936;80;20109;-46
2022/09/23 05:26:00;;;;;;;;;;;;;;;7.21;93.54;99580.47;1783958;80;20161;-47
2022/09/23 05:28:28;;;;;;;;;;;;;;;7.29;93.26;99586.26;1784070;80;20104;-47
2022/09/23 05:30:58;;;;;;;;;;;;;;;7.32;93.03;99584.84;1783907;80;20104;-45
2022/09/23 05:33:23;;;;;;;;;;;;;;;7.36;92.42;99588.20;1772398;80;20104;-44
2022/09/23 05:35:49;;;;;;;;;;;;;;;7.41;92.05;99585.80;1783918;80;20157;-48
2022/09/23 05:38:16;;;;;;;;;;;;;;;7.47;92.53;99591.26;1783854;80;20132;-47
2022/09/23 05:40:42;;;;;;;;;;;;;;;7.53;92.02;99588.86;1783823;80;20539;-48
2022/09/23 05:43:07;;;;;;;;;;;;;;;7.52;92.07;99585.87;1776152;80;20108;-49
2022/09/23 05:45:34;;;;;;;;;;;;;;;7.54;92.13;99588.81;1770142;81;20111;-47
2022/09/23 05:48:00;;;;;;;;;;;;;;;7.60;92.47;99581.17;1770257;81;20168;-48
2022/09/23 05:50:26;;;;;;;;;;;;;;;7.67;91.99;99580.88;1770272;81;20155;-48
2022/09/23 05:52:52;;;;;;;;;;;;;;;7.69;92.47;99580.39;1770375;81;20108;-50
2022/09/23 05:55:17;;;;;;;;;;;;;;;7.79;92.37;99581.33;1769686;81;20131;-46
2022/09/23 05:57:43;;;;;;;;;;;;;;;7.81;92.44;99580.81;1770413;81;20412;-51
2022/09/23 06:00:11;;;;;;;;;;;;;;;7.89;92.44;99582.66;1770357;81;20112;-46
2022/09/23 06:02:36;;;;;;;;;;;;;;;8.02;91.90;99590.88;1770304;80;20451;-46
2022/09/23 06:05:02;;;;;;;;;;;;;;;8.12;91.77;99582.20;1770376;81;20103;-46
2022/09/23 06:07:30;;;;;;;;;;;;;;;8.21;91.89;99579.22;1770287;81;20096;-46
2022/09/23 06:09:56;;;;;;;;;;;;;;;8.25;91.56;99588.64;1770299;81;20501;-49
2022/09/23 06:12:22;;;;;;;;;;;;;;;8.25;92.04;99580.31;1770420;81;20152;-52
2022/09/23 06:14:49;;;;;;;;;;;;;;;8.28;91.85;99576.73;1770130;81;20111;-50
2022/09/23 06:17:15;;;;;;;;;;;;;;;8.34;91.87;99583.02;1770366;81;20111;-48
2022/09/23 06:19:40;;;;;;;;;;;;;;;8.43;92.30;99581.36;1770302;80;20100;-46
2022/09/23 06:22:06;;;;;;;;;;;;;;;8.43;92.01;99585.29;1770287;81;20444;-48
2022/09/23 06:24:31;;;;;;;;;;;;;;;8.52;92.00;99583.21;1770318;81;20404;-50
2022/09/23 06:26:57;;;;;;;;;;;;;;;8.51;91.98;99591.52;1770313;81;20096;-48
2022/09/23 06:29:23;;;;;;;;;;;;;;;8.57;92.06;99594.36;1770283;81;20127;-45
2022/09/23 06:31:49;;;;;;;;;;;;;;;8.67;92.05;99598.75;1770283;80;20395;-50
2022/09/23 06:34:14;;;;;;;;;;;;;;;8.75;92.10;99596.20;1770312;81;20104;-50
2022/09/23 06:36:41;;;;;;;;;;;;;;;8.83;91.78;99591.45;1770321;80;20428;-52
2022/09/23 06:39:07;;;;;;;;;;;;;;;8.92;91.49;99599.86;1770348;80;20111;-48
2022/09/23 06:41:32;;;;;;;;;;;;;;;8.98;91.35;99589.09;1770294;81;20127;-49
2022/09/23 06:43:58;;;;;;;;;;;;;;;9.04;90.64;99591.46;1757355;80;20433;-50
2022/09/23 06:46:24;;;;;;;;;;;;;;;9.02;91.29;99587.59;1754199;81;20096;-47
2022/09/23 06:48:49;;;;;;;;;;;;;;;9.11;91.36;99598.11;1754232;82;20128;-47
2022/09/23 06:51:18;;;;;;;;;;;;;;;9.18;91.19;99595.61;1754170;82;20113;-48
2022/09/23 06:53:45;;;;;;;;;;;;;;;9.22;91.35;99591.95;1754137;82;20108;-47
2022/09/23 06:56:11;;;;;;;;;;;;;;;9.31;91.01;99593.75;1754187;81;20112;-48
2022/09/23 06:58:37;;;;;;;;;;;;;;;9.35;91.06;99592.68;1754165;81;20398;-47
2022/09/23 07:01:09;;;;;;;;;;;;;;;9.38;90.87;99593.86;1754161;82;20152;-48
2022/09/23 07:03:35;;;;;;;;;;;;;;;9.45;90.44;99592.66;1754126;80;20096;-47
2022/09/23 07:06:01;;;;;;;;;;;;;;;9.49;90.91;99593.38;1754259;82;20112;-49
2022/09/23 07:08:29;;;;;;;;;;;;;;;9.59;90.98;99596.82;1753675;81;20129;-47
2022/09/23 07:10:57;;;;;;;;;;;;;;;9.70;90.64;99601.58;1753692;80;20145;-50
2022/09/23 07:13:23;;;;;;;;;;;;;;;9.83;90.30;99599.70;1732064;81;20117;-46
2022/09/23 07:15:52;;;;;;;;;;;;;;;9.83;89.95;99600.53;1753812;82;20104;-48
2022/09/23 07:18:18;;;;;;;;;;;;;;;9.82;89.45;99601.44;1754109;81;20096;-47
2022/09/23 07:20:45;;;;;;;;;;;;;;;9.86;89.45;99600.40;1754103;82;20140;-50
2022/09/23 07:23:11;;;;;;;;;;;;;;;9.92;89.61;99600.56;1754125;81;20149;-49
2022/09/23 07:25:37;;;;;;;;;;;;;;;9.95;89.57;99602.59;1754131;81;20108;-49
2022/09/23 07:28:03;;;;;;;;;;;;;;;10.04;88.51;99600.42;1754125;82;20113;-49
2022/09/23 07:30:29;;;;;;;;;;;;;;;10.04;89.08;99599.11;1754150;82;20101;-49
2022/09/23 07:32:54;;;;;;;;;;;;;;;10.12;88.77;99599.61;1754132;81;20129;-46
2022/09/23 07:35:20;;;;;;;;;;;;;;;10.21;88.65;99603.57;1754214;81;20173;-50
2022/09/23 07:37:45;;;;;;;;;;;;;;;10.26;88.55;99604.17;1754528;81;20410;-48
2022/09/23 07:40:11;;;;;;;;;;;;;;;10.34;88.52;99608.16;1745592;82;20114;-51
2022/09/23 07:42:39;;;;;;;;;;;;;;;10.38;87.71;99605.77;1727732;81;20138;-46
2022/09/23 07:45:07;;;;;;;;;;;;;;;10.48;87.76;99604.87;1742634;81;20106;-48
2022/09/23 07:47:33;;;;;;;;;;;;;;;10.63;87.71;99609.81;1753179;81;20106;-49
2022/09/23 07:49:59;;;;;;;;;;;;;;;10.80;87.60;99617.31;1755987;81;20584;-50
2022/09/23 07:52:24;;;;;;;;;;;;;;;10.98;86.87;99620.78;1754731;81;20138;-47
2022/09/23 07:54:50;;;;;;;;;;;;;;;11.07;85.95;99619.83;1753810;80;20143;-49
2022/09/23 07:57:16;;;;;;;;;;;;;;;11.19;85.46;99614.41;1743932;81;20110;-48
2022/09/23 07:59:42;;;;;;;;;;;;;;;11.33;85.85;99611.02;1739813;82;20407;-43
2022/09/23 08:02:09;;;;;;;;;;;;;;;11.46;84.68;99604.63;1753648;79;20102;-49
2022/09/23 08:04:35;;;;;;;;;;;;;;;11.56;83.40;99607.16;1762716;81;20121;-48
2022/09/23 08:07:03;;;;;;;;;;;;;;;11.56;81.83;99607.16;1762843;81;20107;-48
2022/09/23 08:09:37;;;;;;;;;;;;;;;11.63;82.15;99605.89;1762610;81;20118;-50
2022/09/23 08:12:02;;;;;;;;;;;;;;;11.71;82.95;99605.47;1762585;81;20150;-49
2022/09/23 08:14:28;;;;;;;;;;;;;;;11.74;81.88;99609.27;1762776;81;20106;-51
2022/09/23 08:16:53;;;;;;;;;;;;;;;11.79;81.41;99601.95;1762643;81;20114;-48
2022/09/23 08:19:19;;;;;;;;;;;;;;;11.82;81.71;99604.87;1762779;81;20406;-48
2022/09/23 08:21:46;;;;;;;;;;;;;;;11.69;79.52;99612.13;1762875;80;20109;-49
2022/09/23 08:24:16;;;;;;;;;;;;;;;11.67;80.50;99606.58;1769709;81;20396;-48
2022/09/23 08:26:44;;;;;;;;;;;;;;;11.58;80.88;99606.61;1769921;81;20148;-50
2022/09/23 08:29:12;;;;;;;;;;;;;;;11.62;81.37;99612.08;1769953;80;20103;-48
2022/09/23 08:31:37;;;;;;;;;;;;;;;11.72;79.39;99611.13;1770015;81;20104;-52
2022/09/23 08:34:03;;;;;;;;;;;;;;;11.85;80.36;99602.08;1770160;80;20710;-51
2022/09/23 08:36:30;;;;;;;;;;;;;;;12.00;80.12;99601.72;1770112;81;20123;-47
2022/09/23 08:38:56;;;;;;;;;;;;;;;12.14;78.39;99599.16;1770085;80;20115;-49
2022/09/23 08:41:44;;;;;;;;;;;;;;;12.20;75.91;99602.75;1789310;79;20403;-51
2022/09/23 08:44:16;;;;;;;;;;;;;;;12.17;74.83;99596.36;1799547;79;20127;-53
2022/09/23 08:46:49;;;;;;;;;;;;;;;12.22;76.34;99598.23;1772837;79;20252;-50
2022/09/23 08:49:18;;;;;;;;;;;;;;;12.27;75.96;99596.19;1771563;79;20145;-47
2022/09/23 08:51:46;;;;;;;;;;;;;;;12.27;75.96;99592.71;1772662;81;20138;-51
2022/09/23 08:54:12;;;;;;;;;;;;;;;12.33;75.01;99592.34;1777537;79;20148;-52
2022/09/23 08:56:38;;;;;;;;;;;;;;;12.49;75.64;99589.67;1782415;80;20415;-46
2022/09/23 08:59:19;;;;;;;;;;;;;;;12.68;75.06;99586.82;1782375;80;20124;-51
2022/09/23 09:01:52;;;;;;;;;;;;;;;12.75;71.64;99589.92;1782248;80;20136;-48
2022/09/23 09:04:26;;;;;;;;;;;;;;;12.81;72.73;99590.90;1782168;80;20180;-47
2022/09/23 09:06:56;;;;;;;;;;;;;;;12.83;73.41;99587.21;1782206;80;20096;-49
2022/09/23 09:09:31;;;;;;;;;;;;;;;12.89;73.57;99587.31;1781946;80;20113;-49
2022/09/23 09:12:19;;;;;;;;;;;;;;;12.98;71.96;99588.55;1782584;80;20092;-47
2022/09/23 09:15:03;;;;;;;;;;;;;;;13.08;72.78;99580.47;1776076;80;20142;-44
2022/09/23 09:17:38;;;;;;;;;;;;;;;13.09;68.10;99583.46;1765715;81;20114;-44
2022/09/23 09:20:17;;;;;;;;;;;;;;;13.37;67.16;99583.11;1765282;80;20106;-45
2022/09/23 09:22:56;;;;;;;;;;;;;;;13.40;66.74;99579.80;1765336;81;20158;-43
2022/09/23 09:25:28;;;;;;;;;;;;;;;13.37;66.20;99586.62;1765724;81;20403;-46
2022/09/23 09:27:57;;;;;;;;;;;;;;;13.40;68.86;99580.28;1765285;81;20422;-53
2022/09/23 09:30:27;;;;;;;;;;;;;;;13.39;67.70;99574.64;1749656;79;20194;-45
2022/09/23 09:33:02;;;;;;;;;;;;;;;13.39;66.44;99566.23;1747938;79;20134;-49
2022/09/23 09:35:35;;;;;;;;;;;;;;;13.46;68.95;99565.84;1767703;79;20148;-50
2022/09/23 09:38:02;;;;;;;;;;;;;;;13.30;66.38;99567.23;1767759;81;20481;-51
2022/09/23 09:40:28;;;;;;;;;;;;;;;13.27;68.58;99568.28;1768915;81;20438;-51
2022/09/23 09:42:54;;;;;;;;;;;;;;;13.10;65.90;99556.13;1769252;81;20113;-50
2022/09/23 09:45:23;;;;;;;;;;;;;;;13.12;67.32;99556.05;1768467;81;20110;-50
2022/09/23 09:48:17;;;;;;;;;;;;;;;13.07;67.07;99554.99;1768541;81;20194;-51
2022/09/23 09:50:47;;;;;;;;;;;;;;;13.19;69.95;99554.24;1735817;81;20137;-50
2022/09/23 09:53:25;;;;;;;;;;;;;;;13.07;66.54;99551.03;1768219;81;20113;-47
2022/09/23 09:56:00;;;;;;;;;;;;;;;12.99;64.19;99551.51;1768545;81;20098;-49
2022/09/23 09:58:39;;;;;;;;;;;;;;;12.68;64.42;99546.77;1768525;81;20106;-47
2022/09/23 10:01:04;;;;;;;;;;;;;;;12.84;65.81;99545.83;1762920;81;20151;-50
2022/09/23 10:03:42;;;;;;;;;;;;;;;12.85;68.15;99547.53;1767606;81;20157;-49
2022/09/23 10:06:23;;;;;;;;;;;;;;;12.74;67.29;99546.02;1767666;81;20157;-48
2022/09/23 10:09:04;;;;;;;;;;;;;;;12.72;67.48;99537.35;1768327;81;20114;-49
2022/09/23 10:11:31;;;;;;;;;;;;;;;12.73;67.15;99540.35;1768473;81;20122;-49
2022/09/23 10:14:08;;;;;;;;;;;;;;;12.62;66.10;99539.20;1763590;79;20759;-46
2022/09/23 10:16:34;;;;;;;;;;;;;;;12.74;66.81;99533.67;1739286;82;20529;-46
2022/09/23 10:19:01;;;;;;;;;;;;;;;12.79;66.42;99532.09;1748827;81;20176;-47
2022/09/23 10:21:33;;;;;;;;;;;;;;;12.84;66.25;99528.67;1768096;81;20166;-47
2022/09/23 10:24:01;;;;;;;;;;;;;;;12.87;64.02;99530.66;1766973;81;20114;-44
2022/09/23 10:26:32;;;;;;;;;;;;;;;13.00;65.79;99535.19;1768067;81;20705;-47
2022/09/23 10:29:00;;;;;;;;;;;;;;;13.03;64.98;99535.84;1768147;81;20447;-50
2022/09/23 10:31:34;;;;;;;;;;;;;;;13.05;62.77;99527.36;1768270;81;20130;-50
2022/09/23 10:34:24;;;;;;;;;;;;;;;13.09;62.45;99524.53;1768166;81;20114;-44
2022/09/23 10:36:57;;;;;;;;;;;;;;;13.26;65.76;99521.67;1766698;79;20119;-48
2022/09/23 10:48:09;;;;;;;;;;;;;;;13.92;61.03;99518.82;1772996;79;20122;-49
2022/09/23 10:50:47;;;;;;;;;;;;;;;14.06;63.95;99511.31;1806408;79;20174;-47
2022/09/23 10:53:29;;;;;;;;;;;;;;;14.01;59.66;99517.38;1806317;79;20111;-51
2022/09/23 10:56:13;;;;;;;;;;;;;;;13.94;60.29;99522.69;1807159;79;20112;-44
2022/09/23 10:58:58;;;;;;;;;;;;;;;13.93;60.68;99523.63;1805702;79;20127;-44
2022/09/23 11:01:42;;;;;;;;;;;;;;;13.98;60.13;99515.77;1806645;79;20156;-49
2022/09/23 11:04:24;;;;;;;;;;;;;;;14.10;57.18;99515.89;1805658;79;20131;-41
2022/09/23 11:07:06;;;;;;;;;;;;;;;14.72;54.69;99515.30;1806082;79;20135;-44
2022/09/23 11:10:02;;;;;;;;;;;;;;;15.98;53.00;99507.64;1807256;79;20503;-46
2022/09/23 11:12:38;;;;;;;;;;;;;;;17.52;53.69;99509.07;1742813;79;20503;-46
2022/09/23 11:15:26;;;;;;;;;;;;;;;18.37;47.91;99500.78;1739504;81;20133;-44
2022/09/23 11:18:01;;;;;;;;;;;;;;;18.79;54.03;99504.28;1738306;81;20131;-44
2022/09/23 11:20:53;;;;;;;;;;;;;;;19.57;45.26;99510.41;1749544;79;20106;-48
2022/09/23 11:23:50;;;;;;;;;;;;;;;20.46;48.51;99492.96;1732811;81;20438;-46
2022/09/23 11:26:26;;;;;;;;;;;;;;;19.64;40.57;99492.88;1716833;81;20102;-50
2022/09/23 11:29:23;;;;;;;;;;;;;;;19.96;47.15;99486.98;1760369;81;20111;-47
2022/09/23 11:31:53;;;;;;;;;;;;;;;21.11;40.57;99486.89;1758660;81;20171;-43
2022/09/23 11:34:41;;;;;;;;;;;;;;;21.90;39.77;99485.95;1723191;80;20611;-50
2022/09/23 11:37:13;;;;;;;;;;;;;;;20.92;34.23;99489.17;1758952;81;20130;-47
2022/09/23 11:39:48;;;;;;;;;;;;;;;20.40;39.49;99489.54;1748292;81;20110;-50
2022/09/23 11:42:35;;;;;;;;;;;;;;;19.76;38.53;99488.30;1739729;82;20519;-47
2022/09/23 11:45:11;;;;;;;;;;;;;;;19.28;40.60;99495.20;1739020;81;20139;-50
2022/09/23 11:48:01;;;;;;;;;;;;;;;18.86;43.71;99490.45;1733843;82;20128;-46
2022/09/23 11:50:42;;;;;;;;;;;;;;;18.22;40.28;99476.31;1739722;82;20170;-50
2022/09/23 11:53:30;;;;;;;;;;;;;;;18.66;43.37;99473.50;1739634;82;20116;-51
2022/09/23 11:56:09;;;;;;;;;;;;;;;19.36;38.70;99470.02;1739679;82;20109;-49
2022/09/23 11:58:38;;;;;;;;;;;;;;;20.55;42.71;99465.05;1749755;79;20106;-42
2022/09/23 12:01:07;;;;;;;;;;;;;;;20.04;37.50;99464.42;1731190;81;20107;-46
2022/09/23 12:03:39;;;;;;;;;;;;;;;19.47;40.72;99459.72;1760216;81;20114;-45
2022/09/23 12:06:11;;;;;;;;;;;;;;;18.96;39.08;99463.38;1758859;81;20687;-46
2022/09/23 12:08:37;;;;;;;;;;;;;;;18.69;43.11;99465.25;1757807;79;20153;-41
2022/09/23 12:11:15;;;;;;;;;;;;;;;18.33;42.70;99468.25;1741250;79;20404;-44
2022/09/23 12:14:07;;;;;;;;;;;;;;;17.60;39.83;99465.41;1819740;78;20572;-43
2022/09/23 12:16:53;;;;;;;;;;;;;;;17.59;39.65;99465.06;1819743;79;20161;-43
2022/09/23 12:19:29;;;;;;;;;;;;;;;18.16;41.97;99464.37;1819180;78;20506;-44
2022/09/23 12:22:08;;;;;;;;;;;;;;;17.84;41.82;99456.38;1820099;78;20097;-43
2022/09/23 12:24:55;;;;;;;;;;;;;;;17.41;41.78;99458.59;1819531;79;20160;-43
2022/09/23 12:27:36;;;;;;;;;;;;;;;17.11;44.30;99460.06;1819536;79;20184;-46
2022/09/23 12:30:06;;;;;;;;;;;;;;;16.69;44.95;99461.13;1821409;79;20185;-44
2022/09/23 12:32:32;;;;;;;;;;;;;;;16.50;45.66;99453.28;1820771;79;20105;-48
2022/09/23 12:34:59;;;;;;;;;;;;;;;18.19;45.23;99455.27;1821193;79;20395;-47
2022/09/23 12:37:34;;;;;;;;;;;;;;;20.21;41.50;99448.17;1821282;78;20137;-46
2022/09/23 12:40:07;;;;;;;;;;;;;;;21.85;33.53;99444.92;1803322;78;20108;-48
2022/09/23 12:42:32;;;;;;;;;;;;;;;23.68;31.74;99448.77;1727484;82;20139;-54
2022/09/23 12:45:22;;;;;;;;;;;;;;;24.91;28.86;99446.54;1745413;81;20134;-45
2022/09/23 12:47:47;;;;;;;;;;;;;;;24.15;28.35;99442.78;1751564;82;20454;-47
2022/09/23 12:50:50;;;;;;;;;;;;;;;22.83;29.03;99442.13;1751776;82;20149;-47
2022/09/23 12:53:40;;;;;;;;;;;;;;;22.20;31.99;99448.05;1751804;82;20138;-42
2022/09/23 12:56:22;;;;;;;;;;;;;;;21.02;33.55;99447.68;1746413;81;20138;-47
2022/09/23 12:58:51;;;;;;;;;;;;;;;20.16;35.88;99442.44;1751418;82;20158;-50
2022/09/23 13:01:22;;;;;;;;;;;;;;;20.70;37.01;99442.23;1751577;82;20154;-45
2022/09/23 13:06:57;;;;;;;;;;;;;;;20.22;36.72;99442.69;1752430;82;20431;-48
2022/09/23 13:09:29;;;;;;;;;;;;;;;20.20;37.60;99436.66;1751907;82;20139;-46
2022/09/23 13:11:59;;;;;;;;;;;;;;;18.99;39.20;99439.09;1752285;82;20551;-45
2022/09/23 13:14:27;;;;;;;;;;;;;;;18.60;41.20;99438.42;1752461;79;20161;-52
2022/09/23 13:16:55;;;;;;;;;;;;;;;18.31;41.41;99434.27;1751846;82;20482;-50
2022/09/23 13:19:28;;;;;;;;;;;;;;;18.85;41.59;99434.16;1752417;82;20188;-48
2022/09/23 13:22:06;;;;;;;;;;;;;;;20.12;39.38;99426.70;1752113;82;20475;-51
2022/09/23 13:24:43;;;;;;;;;;;;;;;20.74;36.40;99423.61;1753042;81;20111;-51
2022/09/23 13:27:21;;;;;;;;;;;;;;;20.13;37.99;99413.67;1751790;82;20114;-47